Time;durP1;ratioP1;P1;durP2;ratioP2;P2;SDS_P1;SDS_P2;PMS_P1;PMS_P2;Temp;Humidity;BMP_temperature;BMP_pressure;BME280_temperature;BME280_humidity;BME280_pressure;Samples;Min_cycle;Max_cycle;Signal;HPM_P1;HPM_P2
2022/09/21 00:00:40;;;;;;;1.60;0.73;;;;;;;;;;5046831;28;20346;-66
2022/09/21 00:03:07;;;;;;;0.47;0.47;;;;;;;;;;5049035;28;20654;-66
2022/09/21 00:05:35;;;;;;;0.93;0.90;;;;;;;;;;5049053;28;20258;-66
2022/09/21 00:08:02;;;;;;;1.57;0.97;;;;;;;;;;5049032;28;20266;-66
2022/09/21 00:10:29;;;;;;;0.60;0.60;;;;;;;;;;5048097;28;20277;-65
2022/09/21 00:12:59;;;;;;;0.83;0.80;;;;;;;;;;5046570;28;20192;-66
2022/09/21 00:15:26;;;;;;;0.70;0.70;;;;;;;;;;5047534;28;20200;-66
2022/09/21 00:17:54;;;;;;;0.70;0.70;;;;;;;;;;5047210;28;20589;-66
2022/09/21 00:20:21;;;;;;;1.33;0.70;;;;;;;;;;5046130;28;20270;-66
2022/09/21 00:22:49;;;;;;;0.90;0.90;;;;;;;;;;5048848;28;20681;-66
2022/09/21 00:25:16;;;;;;;1.57;0.70;;;;;;;;;;5048174;28;20267;-66
2022/09/21 00:27:43;;;;;;;1.60;0.93;;;;;;;;;;5043181;28;20200;-66
2022/09/21 00:30:12;;;;;;;0.60;0.60;;;;;;;;;;5048763;28;20235;-66
2022/09/21 00:32:39;;;;;;;0.80;0.80;;;;;;;;;;5048674;28;20214;-66
2022/09/21 00:35:08;;;;;;;0.93;0.60;;;;;;;;;;5048458;28;20226;-66
2022/09/21 00:37:35;;;;;;;1.23;0.50;;;;;;;;;;5048591;28;20405;-66
2022/09/21 00:40:03;;;;;;;0.60;0.60;;;;;;;;;;5048931;28;20590;-66
2022/09/21 00:42:31;;;;;;;0.83;0.60;;;;;;;;;;5048332;28;20208;-65
2022/09/21 00:44:58;;;;;;;0.97;0.97;;;;;;;;;;5048646;28;20207;-66
2022/09/21 00:47:28;;;;;;;0.90;0.90;;;;;;;;;;5048516;28;20211;-66
2022/09/21 00:49:56;;;;;;;0.60;0.60;;;;;;;;;;5047673;28;20250;-66
2022/09/21 00:52:24;;;;;;;0.50;0.50;;;;;;;;;;5048399;28;20207;-66
2022/09/21 00:54:53;;;;;;;1.53;0.60;;;;;;;;;;5046443;28;20601;-66
2022/09/21 00:57:21;;;;;;;0.60;0.60;;;;;;;;;;5045407;28;20830;-66
2022/09/21 00:59:49;;;;;;;0.70;0.70;;;;;;;;;;5044301;28;20623;-66
2022/09/21 01:02:16;;;;;;;1.13;0.60;;;;;;;;;;5046468;28;20257;-66
2022/09/21 01:04:45;;;;;;;0.80;0.80;;;;;;;;;;5045773;28;20204;-65
2022/09/21 01:07:17;;;;;;;0.50;0.50;;;;;;;;;;5045519;28;20592;-66
2022/09/21 01:09:45;;;;;;;0.50;0.50;;;;;;;;;;5046569;28;20220;-65
2022/09/21 01:12:18;;;;;;;0.90;0.87;;;;;;;;;;5046340;28;21051;-65
2022/09/21 01:14:50;;;;;;;0.80;0.80;;;;;;;;;;5045946;28;20207;-65
2022/09/21 01:17:24;;;;;;;0.67;0.60;;;;;;;;;;5045816;28;20940;-66
2022/09/21 01:20:16;;;;;;;0.80;0.80;;;;;;;;;;5046191;28;20263;-65
2022/09/21 01:22:50;;;;;;;1.70;0.80;;;;;;;;;;5045602;28;20295;-66
2022/09/21 01:25:27;;;;;;;0.97;0.97;;;;;;;;;;5045443;28;20759;-67
2022/09/21 01:27:58;;;;;;;0.60;0.60;;;;;;;;;;5046059;28;20666;-66
2022/09/21 01:30:26;;;;;;;1.37;0.90;;;;;;;;;;5046964;28;20236;-66
2022/09/21 01:32:56;;;;;;;0.57;0.50;;;;;;;;;;5047766;28;20214;-66
2022/09/21 01:35:25;;;;;;;0.67;0.67;;;;;;;;;;5048932;28;20215;-66
2022/09/21 01:37:56;;;;;;;0.60;0.60;;;;;;;;;;5049912;28;20219;-64
2022/09/21 01:40:25;;;;;;;0.60;0.60;;;;;;;;;;5049606;28;20283;-66
2022/09/21 01:42:54;;;;;;;0.67;0.67;;;;;;;;;;5049029;28;20207;-65
2022/09/21 01:45:24;;;;;;;0.73;0.73;;;;;;;;;;5048985;28;20291;-65
2022/09/21 01:47:55;;;;;;;1.00;0.80;;;;;;;;;;5048488;28;20647;-66
2022/09/21 01:50:22;;;;;;;1.90;0.70;;;;;;;;;;5046564;28;20568;-67
2022/09/21 01:52:51;;;;;;;0.90;0.90;;;;;;;;;;5049386;28;20212;-66
2022/09/21 01:55:21;;;;;;;0.90;0.70;;;;;;;;;;5049848;28;20230;-66
2022/09/21 01:57:52;;;;;;;0.90;0.90;;;;;;;;;;5050999;28;20211;-65
2022/09/21 02:00:19;;;;;;;0.77;0.77;;;;;;;;;;5049135;28;20200;-66
2022/09/21 02:02:50;;;;;;;1.00;0.97;;;;;;;;;;5049133;28;20227;-65
2022/09/21 02:05:20;;;;;;;1.00;1.00;;;;;;;;;;5048638;28;20316;-65
2022/09/21 02:07:47;;;;;;;0.93;0.80;;;;;;;;;;5048402;28;20208;-66
2022/09/21 02:10:17;;;;;;;0.83;0.83;;;;;;;;;;5048029;28;20227;-66
2022/09/21 02:12:45;;;;;;;1.10;1.10;;;;;;;;;;5049304;28;20685;-66
2022/09/21 02:15:12;;;;;;;1.93;1.00;;;;;;;;;;5047474;28;20203;-66
2022/09/21 02:17:46;;;;;;;1.40;1.30;;;;;;;;;;5048813;28;20257;-66
2022/09/21 02:20:18;;;;;;;1.20;1.20;;;;;;;;;;5048905;28;20203;-65
2022/09/21 02:22:53;;;;;;;3.00;1.83;;;;;;;;;;5049374;28;20235;-65
2022/09/21 02:25:26;;;;;;;2.10;1.40;;;;;;;;;;5049496;28;20312;-66
2022/09/21 02:27:55;;;;;;;1.30;1.23;;;;;;;;;;5049583;28;20203;-65
2022/09/21 02:30:23;;;;;;;0.90;0.90;;;;;;;;;;5049725;28;21034;-65
2022/09/21 02:32:55;;;;;;;5.03;1.40;;;;;;;;;;5049353;28;20234;-65
2022/09/21 02:35:29;;;;;;;2.40;1.40;;;;;;;;;;5049466;28;20255;-67
2022/09/21 02:38:03;;;;;;;1.30;1.20;;;;;;;;;;5049624;28;20211;-66
2022/09/21 02:40:31;;;;;;;1.33;1.30;;;;;;;;;;5049269;28;20203;-66
2022/09/21 02:43:01;;;;;;;1.30;1.30;;;;;;;;;;5049164;28;20207;-66
2022/09/21 02:45:31;;;;;;;1.50;1.20;;;;;;;;;;5049408;28;20211;-66
2022/09/21 02:48:00;;;;;;;3.00;1.37;;;;;;;;;;5049408;28;20262;-65
2022/09/21 02:50:31;;;;;;;1.33;1.13;;;;;;;;;;5049650;28;20254;-65
2022/09/21 02:53:01;;;;;;;0.90;0.90;;;;;;;;;;5049452;28;20695;-66
2022/09/21 02:55:29;;;;;;;1.13;1.03;;;;;;;;;;5050059;28;20211;-65
2022/09/21 02:57:56;;;;;;;1.73;1.23;;;;;;;;;;5048338;28;20203;-65
2022/09/21 03:00:23;;;;;;;1.67;1.30;;;;;;;;;;5046860;28;20207;-65
2022/09/21 03:02:50;;;;;;;1.40;1.30;;;;;;;;;;5048940;28;20283;-66
2022/09/21 03:05:17;;;;;;;1.30;1.30;;;;;;;;;;5048713;28;20277;-66
2022/09/21 03:07:44;;;;;;;1.20;1.20;;;;;;;;;;5049391;28;20256;-66
2022/09/21 03:10:12;;;;;;;0.97;0.77;;;;;;;;;;5049008;28;20293;-66
2022/09/21 03:12:42;;;;;;;1.43;1.33;;;;;;;;;;5048604;28;20253;-66
2022/09/21 03:15:09;;;;;;;0.93;0.93;;;;;;;;;;5048894;28;21029;-65
2022/09/21 03:17:36;;;;;;;1.20;1.20;;;;;;;;;;5048451;28;20562;-67
2022/09/21 03:20:03;;;;;;;0.80;0.80;;;;;;;;;;5048580;28;20211;-66
2022/09/21 03:22:30;;;;;;;1.60;1.20;;;;;;;;;;5048393;28;20207;-64
2022/09/21 03:24:58;;;;;;;0.87;0.80;;;;;;;;;;5047601;28;20305;-65
2022/09/21 03:27:26;;;;;;;1.03;1.03;;;;;;;;;;5048981;28;20218;-65
2022/09/21 03:29:53;;;;;;;1.03;1.03;;;;;;;;;;5047722;28;20220;-65
2022/09/21 03:32:20;;;;;;;2.33;1.00;;;;;;;;;;5047403;28;20281;-65
2022/09/21 03:34:47;;;;;;;0.80;0.80;;;;;;;;;;5048302;28;20210;-64
2022/09/21 03:37:14;;;;;;;1.23;1.20;;;;;;;;;;5048405;28;20226;-64
2022/09/21 03:39:41;;;;;;;1.33;1.23;;;;;;;;;;5046010;28;20723;-65
2022/09/21 03:42:09;;;;;;;2.87;2.03;;;;;;;;;;5048009;28;20262;-65
2022/09/21 03:44:37;;;;;;;5.73;3.50;;;;;;;;;;5048247;28;20210;-65
2022/09/21 03:47:05;;;;;;;6.27;3.57;;;;;;;;;;5048352;28;20208;-65
2022/09/21 03:49:32;;;;;;;8.53;4.03;;;;;;;;;;5047143;28;20233;-64
2022/09/21 03:51:59;;;;;;;5.00;3.23;;;;;;;;;;5048095;28;20207;-64
2022/09/21 03:54:26;;;;;;;3.73;2.90;;;;;;;;;;5047525;28;20208;-65
2022/09/21 03:56:53;;;;;;;2.80;2.60;;;;;;;;;;5047744;28;20204;-64
2022/09/21 03:59:20;;;;;;;1.80;1.70;;;;;;;;;;5047710;28;20211;-65
2022/09/21 04:01:49;;;;;;;1.37;1.27;;;;;;;;;;5045227;28;20269;-65
2022/09/21 04:04:16;;;;;;;1.17;1.17;;;;;;;;;;5047399;28;20230;-65
2022/09/21 04:06:45;;;;;;;2.10;1.23;;;;;;;;;;5048057;28;20199;-65
2022/09/21 04:09:12;;;;;;;1.40;1.30;;;;;;;;;;5047690;28;20204;-64
2022/09/21 04:11:39;;;;;;;1.03;1.03;;;;;;;;;;5047769;28;20251;-64
2022/09/21 04:14:06;;;;;;;1.47;1.07;;;;;;;;;;5047481;28;20898;-65
2022/09/21 04:16:33;;;;;;;1.50;1.50;;;;;;;;;;5046753;28;20208;-65
2022/09/21 04:19:02;;;;;;;1.00;1.00;;;;;;;;;;5047538;28;20211;-65
2022/09/21 04:21:29;;;;;;;3.40;1.20;;;;;;;;;;5047970;28;20196;-65
2022/09/21 04:23:56;;;;;;;3.07;1.10;;;;;;;;;;5047974;28;20217;-64
2022/09/21 04:26:25;;;;;;;1.10;1.10;;;;;;;;;;5047943;28;20231;-65
2022/09/21 04:28:52;;;;;;;1.27;1.20;;;;;;;;;;5048006;28;20200;-65
2022/09/21 04:31:19;;;;;;;0.93;0.93;;;;;;;;;;5047610;28;20228;-65
2022/09/21 04:33:48;;;;;;;1.60;1.50;;;;;;;;;;5047810;28;20204;-64
2022/09/21 04:36:17;;;;;;;1.30;1.20;;;;;;;;;;5047292;28;20298;-65
2022/09/21 04:38:44;;;;;;;1.20;1.20;;;;;;;;;;5048103;28;20229;-64
2022/09/21 04:41:11;;;;;;;4.00;1.20;;;;;;;;;;5047607;28;20200;-65
2022/09/21 04:43:39;;;;;;;1.63;1.37;;;;;;;;;;5047545;28;20204;-65
2022/09/21 04:46:06;;;;;;;1.73;1.40;;;;;;;;;;5047150;28;20768;-66
2022/09/21 04:48:33;;;;;;;1.83;1.30;;;;;;;;;;5047761;28;20208;-64
2022/09/21 04:51:00;;;;;;;1.67;1.57;;;;;;;;;;5047121;28;20225;-64
2022/09/21 04:53:29;;;;;;;1.60;1.50;;;;;;;;;;5044371;28;20214;-65
2022/09/21 04:55:56;;;;;;;1.53;1.43;;;;;;;;;;5046843;28;20342;-65
2022/09/21 04:58:23;;;;;;;2.07;1.50;;;;;;;;;;5046894;28;20204;-64
2022/09/21 05:00:50;;;;;;;9.00;1.63;;;;;;;;;;5047212;28;20208;-64
2022/09/21 05:03:17;;;;;;;3.53;1.07;;;;;;;;;;5047720;28;20227;-65
2022/09/21 05:05:47;;;;;;;1.03;1.03;;;;;;;;;;5048284;28;20207;-65
2022/09/21 05:08:14;;;;;;;3.57;1.10;;;;;;;;;;5050760;28;20207;-64
2022/09/21 05:10:41;;;;;;;1.20;1.10;;;;;;;;;;5051222;28;20759;-66
2022/09/21 05:13:08;;;;;;;1.03;1.03;;;;;;;;;;5052009;28;20203;-65
2022/09/21 05:15:37;;;;;;;1.37;1.33;;;;;;;;;;5052653;28;20203;-67
2022/09/21 05:18:04;;;;;;;2.60;1.50;;;;;;;;;;5052259;28;20261;-65
2022/09/21 05:20:31;;;;;;;2.97;1.60;;;;;;;;;;5051687;28;20204;-65
2022/09/21 05:23:01;;;;;;;2.00;1.27;;;;;;;;;;5052229;28;20200;-64
2022/09/21 05:25:28;;;;;;;1.37;1.27;;;;;;;;;;5050342;28;20327;-64
2022/09/21 05:27:56;;;;;;;2.20;1.37;;;;;;;;;;5051779;28;20258;-65
2022/09/21 05:30:23;;;;;;;1.40;1.33;;;;;;;;;;5051361;28;20228;-64
2022/09/21 05:32:55;;;;;;;1.17;1.17;;;;;;;;;;5052004;28;20226;-65
2022/09/21 05:35:26;;;;;;;1.13;1.10;;;;;;;;;;5051623;28;20227;-65
2022/09/21 05:37:57;;;;;;;0.97;0.97;;;;;;;;;;5052195;28;20688;-65
2022/09/21 05:40:25;;;;;;;1.10;1.10;;;;;;;;;;5051621;28;20582;-65
2022/09/21 05:42:52;;;;;;;1.50;1.40;;;;;;;;;;5050903;28;20258;-64
2022/09/21 05:45:21;;;;;;;3.83;1.17;;;;;;;;;;5051198;28;20714;-64
2022/09/21 05:47:56;;;;;;;1.63;1.60;;;;;;;;;;5051383;28;20646;-65
2022/09/21 05:50:31;;;;;;;3.90;1.57;;;;;;;;;;5049013;28;20231;-64
2022/09/21 05:53:04;;;;;;;2.00;1.50;;;;;;;;;;5050934;28;20621;-65
2022/09/21 05:55:34;;;;;;;1.43;1.43;;;;;;;;;;5049737;28;20208;-64
2022/09/21 05:58:04;;;;;;;2.40;2.03;;;;;;;;;;5050870;28;20213;-63
2022/09/21 06:00:39;;;;;;;2.07;1.90;;;;;;;;;;5049538;28;20200;-65
2022/09/21 06:03:21;;;;;;;3.27;2.73;;;;;;;;;;5049113;28;20219;-66
2022/09/21 06:05:48;;;;;;;3.47;2.53;;;;;;;;;;5050842;28;20215;-65
2022/09/21 06:08:15;;;;;;;3.80;2.60;;;;;;;;;;5050658;28;20211;-66
2022/09/21 06:10:42;;;;;;;2.73;2.53;;;;;;;;;;5050983;28;20234;-65
2022/09/21 06:13:10;;;;;;;2.47;2.37;;;;;;;;;;5050676;28;20208;-65
2022/09/21 06:15:39;;;;;;;2.40;2.20;;;;;;;;;;5046468;28;20208;-65
2022/09/21 06:18:06;;;;;;;2.47;2.27;;;;;;;;;;5046871;28;20945;-66
2022/09/21 06:20:33;;;;;;;3.40;2.07;;;;;;;;;;5046567;28;20260;-66
2022/09/21 06:23:01;;;;;;;2.57;2.40;;;;;;;;;;5045689;28;20204;-67
2022/09/21 06:25:28;;;;;;;3.20;2.90;;;;;;;;;;5051113;28;20235;-65
2022/09/21 06:27:55;;;;;;;2.57;2.37;;;;;;;;;;5051735;28;20211;-65
2022/09/21 06:30:22;;;;;;;2.67;2.10;;;;;;;;;;5051368;28;20228;-64
2022/09/21 06:32:50;;;;;;;2.37;2.27;;;;;;;;;;5051629;28;20215;-65
2022/09/21 06:35:18;;;;;;;3.00;2.30;;;;;;;;;;5051261;28;20215;-66
2022/09/21 06:37:45;;;;;;;2.90;2.23;;;;;;;;;;5051375;28;20208;-66
2022/09/21 06:40:12;;;;;;;2.27;1.97;;;;;;;;;;5048750;28;20661;-65
2022/09/21 06:42:39;;;;;;;4.03;1.90;;;;;;;;;;5051397;28;20211;-65
2022/09/21 06:45:06;;;;;;;2.53;2.30;;;;;;;;;;5051074;28;20212;-65
2022/09/21 06:47:33;;;;;;;3.80;2.47;;;;;;;;;;5051242;28;20211;-66
2022/09/21 06:50:02;;;;;;;2.13;2.03;;;;;;;;;;5050800;28;20257;-66
2022/09/21 06:52:29;;;;;;;2.50;2.30;;;;;;;;;;5051126;28;20244;-65
2022/09/21 06:54:56;;;;;;;3.57;2.27;;;;;;;;;;5050913;28;20203;-66
2022/09/21 06:57:23;;;;;;;2.53;2.43;;;;;;;;;;5051135;28;20216;-66
2022/09/21 06:59:50;;;;;;;2.30;2.20;;;;;;;;;;5050744;28;20615;-66
2022/09/21 07:02:17;;;;;;;2.50;2.40;;;;;;;;;;5050632;28;20212;-64
2022/09/21 07:04:44;;;;;;;2.77;2.57;;;;;;;;;;5050760;28;20204;-65
2022/09/21 07:07:13;;;;;;;3.37;2.47;;;;;;;;;;5050849;28;20257;-65
2022/09/21 07:09:40;;;;;;;5.43;2.77;;;;;;;;;;5050483;28;20215;-65
2022/09/21 07:12:07;;;;;;;3.13;2.47;;;;;;;;;;5050613;28;20235;-64
2022/09/21 07:14:34;;;;;;;3.80;2.67;;;;;;;;;;5050129;28;20203;-64
2022/09/21 07:17:01;;;;;;;2.50;2.40;;;;;;;;;;5050581;28;20208;-65
2022/09/21 07:19:28;;;;;;;3.23;2.80;;;;;;;;;;5050141;28;20207;-62
2022/09/21 07:21:55;;;;;;;3.30;2.50;;;;;;;;;;5048383;28;20287;-62
2022/09/21 07:24:24;;;;;;;2.87;2.77;;;;;;;;;;5049705;28;20218;-63
2022/09/21 07:26:51;;;;;;;3.17;2.97;;;;;;;;;;5049249;28;20204;-62
2022/09/21 07:29:18;;;;;;;2.63;2.43;;;;;;;;;;5031406;28;20299;-61
2022/09/21 07:31:46;;;;;;;5.17;2.97;;;;;;;;;;5047144;28;20708;-63
2022/09/21 07:34:13;;;;;;;2.83;2.60;;;;;;;;;;5050380;28;20203;-63
2022/09/21 07:36:40;;;;;;;3.13;2.87;;;;;;;;;;5035419;28;20219;-63
2022/09/21 07:39:09;;;;;;;3.20;3.00;;;;;;;;;;5030104;28;20627;-64
2022/09/21 07:41:37;;;;;;;3.13;2.93;;;;;;;;;;5045920;28;20200;-62
2022/09/21 07:44:04;;;;;;;3.90;2.30;;;;;;;;;;5049690;28;20316;-62
2022/09/21 07:46:32;;;;;;;3.73;3.43;;;;;;;;;;5049353;28;20199;-64
2022/09/21 07:48:59;;;;;;;3.10;2.90;;;;;;;;;;5048228;28;20204;-64
2022/09/21 07:51:26;;;;;;;3.20;2.90;;;;;;;;;;5049605;28;20224;-64
2022/09/21 07:53:56;;;;;;;3.10;2.90;;;;;;;;;;5049281;28;20261;-63
2022/09/21 07:56:23;;;;;;;2.70;2.50;;;;;;;;;;5048044;28;20237;-64
2022/09/21 07:59:05;;;;;;;3.63;2.90;;;;;;;;;;5048091;28;20682;-64
2022/09/21 08:01:33;;;;;;;3.60;2.57;;;;;;;;;;5036793;28;20212;-64
2022/09/21 08:04:00;;;;;;;2.73;2.53;;;;;;;;;;5049348;28;20224;-66
2022/09/21 08:06:29;;;;;;;4.63;3.13;;;;;;;;;;5049207;28;20207;-64
2022/09/21 08:08:56;;;;;;;3.20;2.90;;;;;;;;;;5048361;28;20804;-63
2022/09/21 08:11:24;;;;;;;2.57;2.47;;;;;;;;;;5048484;28;20640;-66
2022/09/21 08:13:54;;;;;;;2.70;2.03;;;;;;;;;;5049087;28;20315;-62
2022/09/21 08:16:21;;;;;;;2.10;2.00;;;;;;;;;;5048661;28;20203;-62
2022/09/21 08:18:49;;;;;;;1.83;1.73;;;;;;;;;;5036346;28;20738;-62
2022/09/21 08:21:16;;;;;;;2.50;2.37;;;;;;;;;;5049119;28;20196;-64
2022/09/21 08:23:43;;;;;;;2.00;1.90;;;;;;;;;;5048632;28;20836;-62
2022/09/21 08:26:15;;;;;;;2.13;2.03;;;;;;;;;;5046099;28;20227;-62
2022/09/21 08:28:42;;;;;;;1.90;1.70;;;;;;;;;;5049347;28;20207;-61
2022/09/21 08:31:11;;;;;;;1.70;1.60;;;;;;;;;;5049033;28;20227;-62
2022/09/21 08:33:38;;;;;;;2.93;1.70;;;;;;;;;;5048893;28;20216;-63
2022/09/21 08:36:05;;;;;;;1.40;1.30;;;;;;;;;;5047683;28;20862;-62
2022/09/21 08:38:33;;;;;;;3.80;1.00;;;;;;;;;;5048805;28;20207;-62
2022/09/21 08:41:01;;;;;;;0.90;0.90;;;;;;;;;;5048911;28;20203;-62
2022/09/21 08:43:30;;;;;;;1.10;1.10;;;;;;;;;;5053064;28;20609;-63
2022/09/21 08:45:58;;;;;;;1.17;1.07;;;;;;;;;;5053007;28;20222;-62
2022/09/21 08:48:29;;;;;;;1.73;0.83;;;;;;;;;;5052884;28;20666;-62
2022/09/21 08:50:57;;;;;;;1.90;1.17;;;;;;;;;;5052433;28;20273;-63
2022/09/21 08:53:26;;;;;;;1.23;1.13;;;;;;;;;;5051389;28;20219;-65
2022/09/21 08:55:56;;;;;;;0.73;0.73;;;;;;;;;;5052698;28;20204;-62
2022/09/21 08:58:24;;;;;;;2.30;1.00;;;;;;;;;;5052400;28;20203;-65
2022/09/21 09:00:53;;;;;;;3.50;0.83;;;;;;;;;;5052391;28;20246;-63
2022/09/21 09:03:30;;;;;;;2.87;0.60;;;;;;;;;;5051389;28;20281;-63
2022/09/21 09:06:00;;;;;;;0.43;0.43;;;;;;;;;;5052367;28;20211;-63
2022/09/21 09:08:42;;;;;;;0.80;0.80;;;;;;;;;;5051907;28;20200;-64
2022/09/21 09:11:14;;;;;;;0.60;0.60;;;;;;;;;;5047455;28;20227;-64
2022/09/21 09:13:56;;;;;;;1.23;0.87;;;;;;;;;;5052638;28;20592;-64
2022/09/21 09:16:27;;;;;;;1.67;0.75;;;;;;;;;;5051694;28;20261;-65
2022/09/21 09:18:55;;;;;;;3.08;0.90;;;;;;;;;;5052256;28;20208;-64
2022/09/21 09:21:26;;;;;;;2.25;0.70;;;;;;;;;;5051762;28;20253;-64
2022/09/21 09:23:54;;;;;;;0.50;0.50;;;;;;;;;;5051571;28;20208;-64
2022/09/21 09:26:24;;;;;;;0.68;0.68;;;;;;;;;;5050593;28;20281;-66
2022/09/21 09:28:54;;;;;;;0.80;0.77;;;;;;;;;;5049266;28;20257;-64
2022/09/21 09:31:23;;;;;;;0.40;0.40;;;;;;;;;;5051158;28;20285;-64
2022/09/21 09:33:54;;;;;;;0.70;0.70;;;;;;;;;;5051503;28;20199;-64
2022/09/21 09:36:23;;;;;;;3.08;0.68;;;;;;;;;;5050881;28;20258;-62
2022/09/21 09:38:56;;;;;;;0.52;0.40;;;;;;;;;;5048143;28;20214;-61
2022/09/21 09:41:30;;;;;;;0.30;0.30;;;;;;;;;;5051499;28;20208;-62
2022/09/21 09:44:03;;;;;;;0.30;0.30;;;;;;;;;;5050857;28;20214;-62
2022/09/21 09:46:34;;;;;;;0.88;0.82;;;;;;;;;;5039772;28;20228;-63
2022/09/21 09:49:07;;;;;;;0.50;0.50;;;;;;;;;;5050293;28;20212;-62
2022/09/21 09:51:35;;;;;;;0.30;0.30;;;;;;;;;;5050373;28;20305;-61
2022/09/21 09:54:03;;;;;;;1.73;0.45;;;;;;;;;;5049996;28;20211;-61
2022/09/21 09:56:31;;;;;;;0.43;0.43;;;;;;;;;;5050543;28;20266;-61
2022/09/21 09:59:05;;;;;;;2.08;0.50;;;;;;;;;;5050442;28;20207;-61
2022/09/21 10:01:40;;;;;;;0.30;0.30;;;;;;;;;;5050286;28;20269;-62
2022/09/21 10:04:08;;;;;;;1.85;0.40;;;;;;;;;;5049836;28;20685;-62
2022/09/21 10:06:35;;;;;;;0.20;0.20;;;;;;;;;;5045700;28;20265;-61
2022/09/21 10:09:18;;;;;;;0.38;0.20;;;;;;;;;;5048220;28;20744;-61
2022/09/21 10:11:45;;;;;;;0.35;0.20;;;;;;;;;;5045548;28;20320;-62
2022/09/21 10:14:15;;;;;;;1.77;0.22;;;;;;;;;;5048617;28;20669;-60
2022/09/21 10:16:42;;;;;;;0.28;0.28;;;;;;;;;;5048958;28;20208;-59
2022/09/21 10:19:15;;;;;;;0.20;0.20;;;;;;;;;;5051017;28;20230;-59
2022/09/21 10:21:43;;;;;;;0.28;0.28;;;;;;;;;;5051229;28;20204;-59
2022/09/21 10:24:17;;;;;;;0.40;0.40;;;;;;;;;;5043414;28;20288;-62
2022/09/21 10:26:46;;;;;;;0.52;0.30;;;;;;;;;;5044498;28;21917;-60
2022/09/21 10:29:29;;;;;;;0.30;0.22;;;;;;;;;;5049712;28;20684;-60
2022/09/21 10:31:57;;;;;;;1.55;0.30;;;;;;;;;;5048898;28;20228;-60
2022/09/21 10:34:24;;;;;;;0.52;0.50;;;;;;;;;;5049291;28;20338;-60
2022/09/21 10:36:53;;;;;;;0.30;0.28;;;;;;;;;;5043465;28;20704;-60
2022/09/21 10:39:26;;;;;;;0.30;0.30;;;;;;;;;;5046662;28;20214;-60
2022/09/21 10:41:54;;;;;;;1.58;0.40;;;;;;;;;;5039635;28;20207;-61
2022/09/21 10:44:23;;;;;;;0.60;0.20;;;;;;;;;;5049693;28;20211;-60
2022/09/21 10:46:51;;;;;;;0.30;0.30;;;;;;;;;;5053307;28;20235;-60
2022/09/21 10:49:23;;;;;;;0.30;0.30;;;;;;;;;;5049870;28;20218;-60
2022/09/21 10:51:51;;;;;;;0.43;0.30;;;;;;;;;;5049630;28;20228;-60
2022/09/21 10:54:21;;;;;;;0.30;0.30;;;;;;;;;;5047946;28;20705;-60
2022/09/21 10:56:57;;;;;;;0.22;0.22;;;;;;;;;;5049642;28;20204;-60
2022/09/21 10:59:25;;;;;;;0.32;0.30;;;;;;;;;;5049898;28;20207;-60
2022/09/21 11:01:53;;;;;;;0.25;0.25;;;;;;;;;;5051054;28;20226;-60
2022/09/21 11:04:24;;;;;;;2.53;0.28;;;;;;;;;;5049557;28;20576;-61
2022/09/21 11:06:52;;;;;;;0.30;0.30;;;;;;;;;;5047890;28;20212;-62
2022/09/21 11:09:22;;;;;;;0.15;0.15;;;;;;;;;;5048710;28;20597;-62
2022/09/21 11:11:56;;;;;;;0.65;0.35;;;;;;;;;;5045426;28;20219;-63
2022/09/21 11:14:34;;;;;;;0.68;0.52;;;;;;;;;;5048747;28;20220;-63
2022/09/21 11:17:04;;;;;;;0.32;0.20;;;;;;;;;;5049425;28;20204;-63
2022/09/21 11:19:35;;;;;;;0.38;0.32;;;;;;;;;;5055523;28;20207;-63
2022/09/21 11:22:05;;;;;;;0.70;0.22;;;;;;;;;;5040385;28;20291;-66
2022/09/21 11:24:35;;;;;;;0.20;0.20;;;;;;;;;;5042903;28;20377;-63
2022/09/21 11:27:05;;;;;;;0.20;0.20;;;;;;;;;;5048828;28;20203;-63
2022/09/21 11:29:37;;;;;;;0.30;0.30;;;;;;;;;;5042692;28;20204;-63
2022/09/21 11:32:19;;;;;;;4.20;0.57;;;;;;;;;;5049130;28;20836;-63
2022/09/21 11:34:57;;;;;;;0.40;0.40;;;;;;;;;;5043480;28;20618;-63
2022/09/21 11:37:37;;;;;;;1.27;0.35;;;;;;;;;;5034462;28;20196;-64
2022/09/21 11:40:10;;;;;;;0.45;0.45;;;;;;;;;;5047894;28;20231;-63
2022/09/21 11:42:45;;;;;;;0.30;0.30;;;;;;;;;;5049467;28;20211;-63
2022/09/21 11:45:23;;;;;;;0.47;0.30;;;;;;;;;;5047498;28;20207;-63
2022/09/21 11:47:56;;;;;;;0.80;0.30;;;;;;;;;;5048607;28;20209;-64
2022/09/21 11:50:33;;;;;;;0.35;0.35;;;;;;;;;;5048753;28;20265;-63
2022/09/21 11:53:08;;;;;;;0.20;0.20;;;;;;;;;;5047635;28;20249;-64
2022/09/21 11:55:50;;;;;;;0.20;0.20;;;;;;;;;;5048365;28;20588;-63
2022/09/21 11:58:21;;;;;;;0.98;0.30;;;;;;;;;;5046462;28;20740;-64
2022/09/21 12:00:56;;;;;;;0.20;0.20;;;;;;;;;;5048429;28;20215;-64
2022/09/21 12:03:40;;;;;;;0.22;0.22;;;;;;;;;;5043681;28;20223;-67
2022/09/21 12:06:14;;;;;;;0.30;0.20;;;;;;;;;;5047592;28;20207;-63
2022/09/21 12:08:48;;;;;;;0.30;0.30;;;;;;;;;;5048155;28;20239;-64
2022/09/21 12:11:22;;;;;;;1.90;0.20;;;;;;;;;;5048980;28;20215;-64
2022/09/21 12:13:57;;;;;;;0.30;0.30;;;;;;;;;;5048771;28;20254;-64
2022/09/21 12:16:29;;;;;;;0.20;0.20;;;;;;;;;;5045982;28;20684;-63
2022/09/21 12:19:03;;;;;;;0.20;0.20;;;;;;;;;;5047147;28;20208;-63
2022/09/21 12:21:31;;;;;;;0.45;0.45;;;;;;;;;;5046426;28;20269;-64
2022/09/21 12:24:00;;;;;;;0.15;0.10;;;;;;;;;;5048222;28;20211;-64
2022/09/21 12:26:30;;;;;;;0.20;0.20;;;;;;;;;;5047299;28;20236;-63
2022/09/21 12:29:00;;;;;;;0.10;0.10;;;;;;;;;;5046604;28;20695;-62
2022/09/21 12:31:31;;;;;;;0.30;0.22;;;;;;;;;;5045813;28;20230;-62
2022/09/21 12:34:12;;;;;;;0.30;0.30;;;;;;;;;;5047682;28;20223;-62
2022/09/21 12:36:41;;;;;;;0.77;0.20;;;;;;;;;;5035500;28;20215;-62
2022/09/21 12:39:11;;;;;;;0.10;0.10;;;;;;;;;;5043044;28;20207;-63
2022/09/21 12:41:43;;;;;;;0.75;0.45;;;;;;;;;;5039249;28;20207;-64
2022/09/21 12:44:18;;;;;;;1.55;0.45;;;;;;;;;;5047664;28;20224;-62
2022/09/21 12:46:48;;;;;;;0.22;0.22;;;;;;;;;;5046797;28;20631;-63
2022/09/21 12:49:16;;;;;;;1.90;0.20;;;;;;;;;;5047459;28;20677;-63
2022/09/21 12:51:45;;;;;;;0.20;0.20;;;;;;;;;;5047660;28;20204;-63
2022/09/21 12:54:19;;;;;;;0.22;0.20;;;;;;;;;;5047645;28;20227;-63
2022/09/21 12:56:50;;;;;;;0.38;0.10;;;;;;;;;;5047214;28;20641;-62
2022/09/21 12:59:23;;;;;;;0.25;0.15;;;;;;;;;;5047700;28;20219;-62
2022/09/21 13:01:53;;;;;;;0.10;0.10;;;;;;;;;;5045097;28;20303;-63
2022/09/21 13:04:28;;;;;;;0.15;0.15;;;;;;;;;;5047070;28;20304;-62
2022/09/21 13:07:13;;;;;;;0.47;0.20;;;;;;;;;;5045383;28;20237;-61
2022/09/21 13:09:42;;;;;;;1.20;0.30;;;;;;;;;;5046715;28;20212;-61
2022/09/21 13:12:10;;;;;;;0.22;0.22;;;;;;;;;;5048435;28;20970;-63
2022/09/21 13:14:42;;;;;;;0.20;0.20;;;;;;;;;;5039492;28;20212;-62
2022/09/21 13:17:18;;;;;;;0.68;0.20;;;;;;;;;;5047275;28;20195;-62
2022/09/21 13:19:56;;;;;;;0.13;0.13;;;;;;;;;;5048299;28;20227;-62
2022/09/21 13:22:24;;;;;;;0.17;0.17;;;;;;;;;;5047861;28;20211;-62
2022/09/21 13:25:00;;;;;;;0.17;0.17;;;;;;;;;;5048181;28;20729;-62
2022/09/21 13:27:56;;;;;;;0.43;0.28;;;;;;;;;;5048312;28;20310;-62
2022/09/21 13:30:30;;;;;;;0.20;0.20;;;;;;;;;;5051644;28;20200;-61
2022/09/21 13:33:00;;;;;;;0.20;0.20;;;;;;;;;;5051839;28;20244;-62
2022/09/21 13:35:46;;;;;;;0.20;0.20;;;;;;;;;;5051564;28;20195;-62
2022/09/21 13:38:23;;;;;;;0.30;0.30;;;;;;;;;;5051174;28;20210;-66
2022/09/21 13:40:50;;;;;;;0.20;0.20;;;;;;;;;;5049771;28;20251;-62
2022/09/21 13:43:19;;;;;;;0.52;0.30;;;;;;;;;;5050474;28;20693;-62
2022/09/21 13:45:52;;;;;;;0.93;0.40;;;;;;;;;;5050047;28;20294;-62
2022/09/21 13:48:28;;;;;;;0.30;0.30;;;;;;;;;;5049918;28;20208;-62
2022/09/21 13:51:00;;;;;;;1.42;0.30;;;;;;;;;;5048377;28;20209;-62
2022/09/21 13:53:31;;;;;;;0.20;0.20;;;;;;;;;;5047244;28;20239;-63
2022/09/21 13:56:00;;;;;;;0.40;0.40;;;;;;;;;;5050334;28;20253;-62
2022/09/21 13:58:31;;;;;;;0.30;0.30;;;;;;;;;;5049933;28;20214;-63
2022/09/21 14:00:59;;;;;;;0.30;0.30;;;;;;;;;;5049786;28;20207;-62
2022/09/21 14:03:29;;;;;;;0.30;0.30;;;;;;;;;;5050075;28;20243;-62
2022/09/21 14:06:01;;;;;;;0.35;0.35;;;;;;;;;;5050220;28;20207;-63
2022/09/21 14:08:31;;;;;;;0.20;0.20;;;;;;;;;;5049867;28;20207;-62
2022/09/21 14:11:00;;;;;;;2.85;0.40;;;;;;;;;;5047331;28;20298;-62
2022/09/21 14:13:30;;;;;;;0.35;0.35;;;;;;;;;;5050000;28;20326;-62
2022/09/21 14:16:23;;;;;;;0.20;0.20;;;;;;;;;;5050106;28;20208;-63
2022/09/21 14:18:52;;;;;;;0.38;0.30;;;;;;;;;;5049419;28;20224;-63
2022/09/21 14:21:19;;;;;;;0.28;0.28;;;;;;;;;;5049405;28;20203;-63
2022/09/21 14:24:04;;;;;;;0.20;0.20;;;;;;;;;;5049166;28;20204;-63
2022/09/21 14:26:33;;;;;;;0.22;0.20;;;;;;;;;;5049973;28;20701;-63
2022/09/21 14:29:08;;;;;;;0.35;0.35;;;;;;;;;;5050429;28;20294;-63
2022/09/21 14:31:37;;;;;;;0.45;0.30;;;;;;;;;;5050616;28;20211;-63
2022/09/21 14:34:13;;;;;;;0.20;0.20;;;;;;;;;;5047740;28;20243;-61
2022/09/21 14:36:42;;;;;;;0.35;0.35;;;;;;;;;;5049656;28;20218;-63
2022/09/21 14:39:16;;;;;;;0.30;0.30;;;;;;;;;;5048293;28;20277;-64
2022/09/21 14:41:44;;;;;;;0.30;0.30;;;;;;;;;;5049338;28;20208;-64
2022/09/21 14:44:18;;;;;;;1.85;0.50;;;;;;;;;;5049313;28;20199;-63
2022/09/21 14:46:52;;;;;;;0.38;0.38;;;;;;;;;;5050319;28;20299;-63
2022/09/21 14:49:29;;;;;;;0.35;0.35;;;;;;;;;;5049656;28;20257;-63
2022/09/21 14:52:01;;;;;;;0.20;0.20;;;;;;;;;;5039774;28;20269;-64
2022/09/21 14:54:34;;;;;;;0.20;0.20;;;;;;;;;;5050315;28;20289;-63
2022/09/21 14:57:14;;;;;;;0.30;0.30;;;;;;;;;;5049851;28;20199;-64
2022/09/21 14:59:47;;;;;;;0.68;0.30;;;;;;;;;;5032240;28;20310;-66